sensor_id;sensor_type;location;lat;lon;timestamp;pressure;altitude;pressure_sealevel;temperature;humidity
46045;BME280;31781;54.094;13.428;2022-09-03T07:48:07;102265.38;;;18.35;57.99
46045;BME280;31781;54.094;13.428;2022-09-03T07:53:10;102268.56;;;18.64;57.40
46045;BME280;31781;54.094;13.428;2022-09-03T07:58:14;102267.97;;;19.23;55.68
46045;BME280;31781;54.094;13.428;2022-09-03T08:03:23;102270.87;;;19.64;57.40
46045;BME280;31781;54.094;13.428;2022-09-03T08:08:26;102267.03;;;20.13;57.08
46045;BME280;31781;54.094;13.428;2022-09-03T08:13:37;102267.25;;;20.53;54.75
46045;BME280;31781;54.094;13.428;2022-09-03T08:18:46;102263.69;;;20.87;52.05
46045;BME280;31781;54.094;13.428;2022-09-03T08:23:51;102261.91;;;21.16;52.71
46045;BME280;31781;54.094;13.428;2022-09-03T08:28:55;102254.84;;;21.49;49.14
46045;BME280;31781;54.094;13.428;2022-09-03T08:39:23;102254.50;;;22.13;52.34
46045;BME280;31781;54.094;13.428;2022-09-03T08:44:45;102257.03;;;22.31;51.27
46045;BME280;31781;54.094;13.428;2022-09-03T08:49:53;102266.78;;;22.51;49.81
46045;BME280;31781;54.094;13.428;2022-09-03T08:55:14;102265.38;;;22.82;46.95
46045;BME280;31781;54.094;13.428;2022-09-03T09:05:48;102262.25;;;23.50;48.84
46045;BME280;31781;54.094;13.428;2022-09-03T09:11:02;102251.63;;;23.68;46.74
46045;BME280;31781;54.094;13.428;2022-09-03T09:16:13;102255.53;;;23.94;45.64
46045;BME280;31781;54.094;13.428;2022-09-03T09:21:27;102260.50;;;24.14;43.92
46045;BME280;31781;54.094;13.428;2022-09-03T09:26:32;102259.91;;;24.39;45.55
46045;BME280;31781;54.094;13.428;2022-09-03T09:31:36;102258.50;;;24.68;41.12
46045;BME280;31781;54.094;13.428;2022-09-03T09:36:48;102250.34;;;24.93;40.35
46045;BME280;31781;54.094;13.428;2022-09-03T09:52:58;102228.06;;;25.50;44.17
46045;BME280;31781;54.094;13.428;2022-09-03T09:58:05;102224.53;;;25.70;43.94
46045;BME280;31781;54.094;13.428;2022-09-03T10:03:14;102223.16;;;25.67;39.03
46045;BME280;31781;54.094;13.428;2022-09-03T10:08:23;102228.47;;;25.79;37.36
46045;BME280;31781;54.094;13.428;2022-09-03T10:13:39;102216.44;;;25.68;40.12
46045;BME280;31781;54.094;13.428;2022-09-03T10:18:48;102222.06;;;25.79;41.64
46045;BME280;31781;54.094;13.428;2022-09-03T10:24:14;102220.97;;;25.90;38.38
46045;BME280;31781;54.094;13.428;2022-09-03T10:29:23;102208.12;;;25.84;41.71
46045;BME280;31781;54.094;13.428;2022-09-03T10:34:32;102202.00;;;25.82;37.75
46045;BME280;31781;54.094;13.428;2022-09-03T10:40:04;102207.03;;;25.95;39.54
46045;BME280;31781;54.094;13.428;2022-09-03T10:45:31;102200.13;;;26.38;42.98
46045;BME280;31781;54.094;13.428;2022-09-03T10:50:45;102188.41;;;26.46;39.92
46045;BME280;31781;54.094;13.428;2022-09-03T10:55:57;102193.94;;;26.66;39.69
46045;BME280;31781;54.094;13.428;2022-09-03T11:01:11;102185.81;;;26.80;39.36
46045;BME280;31781;54.094;13.428;2022-09-03T11:06:22;102169.41;;;26.48;39.31
46045;BME280;31781;54.094;13.428;2022-09-03T11:11:30;102173.03;;;26.33;37.09
46045;BME280;31781;54.094;13.428;2022-09-03T11:16:44;102163.84;;;26.38;37.56
46045;BME280;31781;54.094;13.428;2022-09-03T11:27:19;102164.94;;;26.52;38.91
46045;BME280;31781;54.094;13.428;2022-09-03T11:37:54;102158.50;;;26.72;39.60
46045;BME280;31781;54.094;13.428;2022-09-03T11:43:12;102149.22;;;26.76;38.06
46045;BME280;31781;54.094;13.428;2022-09-03T11:48:36;102152.91;;;26.61;38.87
46045;BME280;31781;54.094;13.428;2022-09-03T11:54:03;102149.88;;;26.48;40.16
46045;BME280;31781;54.094;13.428;2022-09-03T11:59:31;102143.47;;;26.22;40.29
46045;BME280;31781;54.094;13.428;2022-09-03T12:10:14;102140.12;;;26.25;40.88
46045;BME280;31781;54.094;13.428;2022-09-03T12:15:41;102149.59;;;26.29;39.98
46045;BME280;31781;54.094;13.428;2022-09-03T12:21:03;102136.22;;;26.41;39.69
46045;BME280;31781;54.094;13.428;2022-09-03T12:31:45;102128.69;;;26.42;40.34
46045;BME280;31781;54.094;13.428;2022-09-03T12:36:51;102120.03;;;26.28;39.92
46045;BME280;31781;54.094;13.428;2022-09-03T12:42:00;102120.84;;;26.29;38.53
46045;BME280;31781;54.094;13.428;2022-09-03T12:47:11;102123.34;;;26.35;39.49
46045;BME280;31781;54.094;13.428;2022-09-03T13:03:24;102101.53;;;26.68;40.71
46045;BME280;31781;54.094;13.428;2022-09-03T13:08:32;102099.28;;;26.64;39.68
46045;BME280;31781;54.094;13.428;2022-09-03T13:13:51;102093.44;;;26.61;38.14
46045;BME280;31781;54.094;13.428;2022-09-03T13:19:07;102094.81;;;26.69;38.90
46045;BME280;31781;54.094;13.428;2022-09-03T13:24:22;102089.47;;;26.77;39.26
46045;BME280;31781;54.094;13.428;2022-09-03T13:29:38;102088.63;;;26.82;38.08
46045;BME280;31781;54.094;13.428;2022-09-03T13:40:15;102088.38;;;26.78;39.81
46045;BME280;31781;54.094;13.428;2022-09-03T13:45:27;102093.97;;;26.73;38.79
46045;BME280;31781;54.094;13.428;2022-09-03T13:50:38;102085.31;;;26.70;38.09
46045;BME280;31781;54.094;13.428;2022-09-03T13:56:03;102080.56;;;26.75;39.27
46045;BME280;31781;54.094;13.428;2022-09-03T14:01:14;102081.16;;;26.67;38.33
46045;BME280;31781;54.094;13.428;2022-09-03T14:06:33;102089.53;;;26.62;37.90
46045;BME280;31781;54.094;13.428;2022-09-03T14:17:15;102084.50;;;26.64;38.73
46045;BME280;31781;54.094;13.428;2022-09-03T14:27:42;102068.34;;;26.51;39.06
46045;BME280;31781;54.094;13.428;2022-09-03T14:32:50;102069.22;;;26.41;38.33
46045;BME280;31781;54.094;13.428;2022-09-03T14:44:15;102061.72;;;26.22;39.38
46045;BME280;31781;54.094;13.428;2022-09-03T14:55:16;102072.03;;;25.96;39.75
46045;BME280;31781;54.094;13.428;2022-09-03T15:06:03;102072.25;;;25.44;39.43
46045;BME280;31781;54.094;13.428;2022-09-03T15:11:29;102078.34;;;25.15;40.65
46045;BME280;31781;54.094;13.428;2022-09-03T15:16:42;102078.81;;;24.92;40.43
46045;BME280;31781;54.094;13.428;2022-09-03T15:21:59;102081.28;;;24.89;41.07
46045;BME280;31781;54.094;13.428;2022-09-03T15:27:40;102067.59;;;24.82;41.54
46045;BME280;31781;54.094;13.428;2022-09-03T15:32:59;102075.34;;;24.70;41.89
46045;BME280;31781;54.094;13.428;2022-09-03T15:38:08;102077.72;;;24.46;41.21
46045;BME280;31781;54.094;13.428;2022-09-03T15:43:25;102066.72;;;24.19;41.30
46045;BME280;31781;54.094;13.428;2022-09-03T15:48:35;102062.09;;;24.03;42.41
46045;BME280;31781;54.094;13.428;2022-09-03T15:53:46;102063.41;;;23.91;42.83
46045;BME280;31781;54.094;13.428;2022-09-03T15:59:00;102076.28;;;23.70;43.09
46045;BME280;31781;54.094;13.428;2022-09-03T16:04:17;102082.16;;;23.47;43.30
46045;BME280;31781;54.094;13.428;2022-09-03T16:09:31;102086.63;;;23.26;44.02
46045;BME280;31781;54.094;13.428;2022-09-03T16:14:50;102083.06;;;23.04;45.17
46045;BME280;31781;54.094;13.428;2022-09-03T16:20:02;102078.34;;;22.83;45.29
46045;BME280;31781;54.094;13.428;2022-09-03T16:25:30;102079.56;;;22.70;45.40
46045;BME280;31781;54.094;13.428;2022-09-03T16:30:45;102084.50;;;22.46;45.81
46045;BME280;31781;54.094;13.428;2022-09-03T16:36:28;102084.19;;;22.43;45.97
46045;BME280;31781;54.094;13.428;2022-09-03T16:47:02;102091.84;;;22.19;46.25
46045;BME280;31781;54.094;13.428;2022-09-03T16:52:31;102082.88;;;22.12;46.07
46045;BME280;31781;54.094;13.428;2022-09-03T16:57:51;102093.94;;;21.95;46.45
46045;BME280;31781;54.094;13.428;2022-09-03T17:03:17;102089.78;;;21.81;46.87
46045;BME280;31781;54.094;13.428;2022-09-03T17:08:39;102085.09;;;21.65;47.24
46045;BME280;31781;54.094;13.428;2022-09-03T17:13:58;102089.53;;;21.49;47.31
46045;BME280;31781;54.094;13.428;2022-09-03T17:19:11;102094.78;;;21.34;47.92
46045;BME280;31781;54.094;13.428;2022-09-03T17:35:31;102089.94;;;21.01;48.33
46045;BME280;31781;54.094;13.428;2022-09-03T17:40:46;102082.03;;;20.81;48.45
46045;BME280;31781;54.094;13.428;2022-09-03T17:46:06;102084.03;;;20.69;48.86
46045;BME280;31781;54.094;13.428;2022-09-03T17:57:09;102086.59;;;20.45;48.89
46045;BME280;31781;54.094;13.428;2022-09-03T18:02:26;102090.84;;;20.41;49.49
46045;BME280;31781;54.094;13.428;2022-09-03T18:07:39;102094.78;;;20.34;49.96
46045;BME280;31781;54.094;13.428;2022-09-03T18:12:56;102096.22;;;20.27;50.15
46045;BME280;31781;54.094;13.428;2022-09-03T18:18:10;102100.81;;;20.18;50.23
46045;BME280;31781;54.094;13.428;2022-09-03T18:23:19;102106.72;;;20.10;50.51
46045;BME280;31781;54.094;13.428;2022-09-03T18:28:49;102125.44;;;19.76;50.33
46045;BME280;31781;54.094;13.428;2022-09-03T18:34:12;102130.44;;;19.68;50.79
46045;BME280;31781;54.094;13.428;2022-09-03T18:39:30;102132.94;;;19.58;51.45
46045;BME280;31781;54.094;13.428;2022-09-03T18:44:45;102133.59;;;19.41;52.58
46045;BME280;31781;54.094;13.428;2022-09-03T18:50:15;102143.62;;;19.36;52.39
46045;BME280;31781;54.094;13.428;2022-09-03T18:55:35;102132.28;;;19.26;53.96
46045;BME280;31781;54.094;13.428;2022-09-03T19:00:51;102139.81;;;19.19;52.48
46045;BME280;31781;54.094;13.428;2022-09-03T19:06:04;102141.22;;;19.10;53.40
46045;BME280;31781;54.094;13.428;2022-09-03T19:11:24;102144.03;;;19.03;53.93
46045;BME280;31781;54.094;13.428;2022-09-03T19:16:40;102148.78;;;18.96;53.48
46045;BME280;31781;54.094;13.428;2022-09-03T19:27:13;102145.25;;;18.89;53.86
46045;BME280;31781;54.094;13.428;2022-09-03T19:32:46;102146.03;;;18.78;53.64
46045;BME280;31781;54.094;13.428;2022-09-03T19:38:25;102137.75;;;18.78;53.35
46045;BME280;31781;54.094;13.428;2022-09-03T19:43:40;102151.47;;;18.66;54.13
46045;BME280;31781;54.094;13.428;2022-09-03T19:54:11;102155.78;;;18.62;54.03
46045;BME280;31781;54.094;13.428;2022-09-03T20:05:06;102162.63;;;18.53;53.71
46045;BME280;31781;54.094;13.428;2022-09-03T20:10:28;102166.88;;;18.49;53.67
46045;BME280;31781;54.094;13.428;2022-09-03T20:15:41;102175.50;;;18.34;54.52
46045;BME280;31781;54.094;13.428;2022-09-03T20:20:52;102172.81;;;18.28;54.38
46045;BME280;31781;54.094;13.428;2022-09-03T20:26:14;102181.12;;;18.21;54.40
46045;BME280;31781;54.094;13.428;2022-09-03T20:36:49;102183.09;;;18.14;53.14
46045;BME280;31781;54.094;13.428;2022-09-03T20:42:09;102189.34;;;18.03;52.98
46045;BME280;31781;54.094;13.428;2022-09-03T20:48:01;102182.53;;;18.06;52.58
46045;BME280;31781;54.094;13.428;2022-09-03T20:53:16;102192.56;;;17.93;52.58
46045;BME280;31781;54.094;13.428;2022-09-03T20:58:28;102202.78;;;17.86;52.80
46045;BME280;31781;54.094;13.428;2022-09-03T21:03:59;102200.22;;;17.91;52.51
46045;BME280;31781;54.094;13.428;2022-09-03T21:09:17;102199.03;;;17.81;52.69
46045;BME280;31781;54.094;13.428;2022-09-03T21:14:41;102202.56;;;17.88;52.51
46045;BME280;31781;54.094;13.428;2022-09-03T21:20:02;102211.94;;;17.80;52.61
46045;BME280;31781;54.094;13.428;2022-09-03T21:25:12;102213.00;;;17.79;52.37
46045;BME280;31781;54.094;13.428;2022-09-03T21:35:41;102208.09;;;17.81;52.08
46045;BME280;31781;54.094;13.428;2022-09-03T21:40:50;102226.81;;;17.73;51.87
46045;BME280;31781;54.094;13.428;2022-09-03T21:46:01;102224.91;;;17.67;51.68
46045;BME280;31781;54.094;13.428;2022-09-03T21:51:17;102225.34;;;17.64;51.59
46045;BME280;31781;54.094;13.428;2022-09-03T22:02:29;102241.06;;;17.57;51.63
46045;BME280;31781;54.094;13.428;2022-09-03T22:13:09;102236.84;;;17.47;51.44
46045;BME280;31781;54.094;13.428;2022-09-03T22:18:26;102231.75;;;17.44;51.28
46045;BME280;31781;54.094;13.428;2022-09-03T22:23:36;102240.69;;;17.40;51.24
46045;BME280;31781;54.094;13.428;2022-09-03T22:28:47;102242.19;;;17.36;50.62
46045;BME280;31781;54.094;13.428;2022-09-03T22:34:05;102243.44;;;17.33;50.47
46045;BME280;31781;54.094;13.428;2022-09-03T22:44:55;102243.03;;;17.36;50.10
46045;BME280;31781;54.094;13.428;2022-09-03T22:50:06;102250.69;;;17.28;49.83
46045;BME280;31781;54.094;13.428;2022-09-03T22:55:18;102246.22;;;17.27;49.34
46045;BME280;31781;54.094;13.428;2022-09-03T23:00:31;102248.38;;;17.25;48.92
46045;BME280;31781;54.094;13.428;2022-09-03T23:05:39;102248.81;;;17.22;49.29
46045;BME280;31781;54.094;13.428;2022-09-03T23:10:54;102258.56;;;17.18;48.94
46045;BME280;31781;54.094;13.428;2022-09-03T23:27:04;102249.88;;;17.14;49.36
46045;BME280;31781;54.094;13.428;2022-09-03T23:32:29;102249.25;;;17.12;49.53
46045;BME280;31781;54.094;13.428;2022-09-03T23:37:44;102255.41;;;17.01;49.49
46045;BME280;31781;54.094;13.428;2022-09-03T23:43:05;102261.53;;;16.96;49.52
46045;BME280;31781;54.094;13.428;2022-09-03T23:48:26;102265.56;;;16.94;49.71
46045;BME280;31781;54.094;13.428;2022-09-03T23:53:51;102258.59;;;16.91;50.00
46045;BME280;31781;54.094;13.428;2022-09-03T23:59:11;102264.53;;;16.88;50.32
